Time;durP1;ratioP1;P1;durP2;ratioP2;P2;SDS_P1;SDS_P2;PMS_P1;PMS_P2;Temp;Humidity;BMP_temperature;BMP_pressure;BME280_temperature;BME280_humidity;BME280_pressure;Samples;Min_cycle;Max_cycle;Signal;HPM_P1;HPM_P2
2021/06/20 17:34:45;;;;;;;7.63;2.60;;;;;;;;;;10426716;27;20393;-57
2021/06/20 17:39:47;;;;;;;6.38;2.65;;;;;;;;;;10416747;28;20077;-57
2021/06/20 18:16:03;;;;;;;10.20;2.85;;;;;;;;;;10593659;27;20764;-63
2021/06/20 18:21:05;;;;;;;7.95;2.90;;;;;;;;;;10528875;27;20047;-64
2021/06/20 18:26:07;;;;;;;8.57;3.00;;;;;;;;;;10483420;28;20048;-64
2021/06/20 18:31:08;;;;;;;6.55;2.67;;;;;;;;;;10496554;28;20456;-63
2021/06/20 18:36:10;;;;;;;7.90;3.13;;;;;;;;;;10474846;28;20051;-64
2021/06/20 18:41:12;;;;;;;7.47;2.80;;;;;;;;;;10457161;28;20053;-63
2021/06/20 18:46:14;;;;;;;10.07;3.63;;;;;;;;;;10455770;28;20124;-64
2021/06/20 18:51:17;;;;;;;6.55;3.05;;;;;;;;;;10459962;28;20052;-64
2021/06/20 18:56:19;;;;;;;6.65;2.85;;;;;;;;;;10470520;28;20136;-64
2021/06/20 19:01:23;;;;;;;8.57;2.70;;;;;;;;;;10446224;28;20045;-64
2021/06/20 19:06:26;;;;;;;5.13;2.75;;;;;;;;;;10468004;28;20053;-64
2021/06/20 19:11:27;;;;;;;8.45;2.90;;;;;;;;;;10468525;28;20052;-64
2021/06/20 19:16:29;;;;;;;7.43;2.72;;;;;;;;;;10492110;28;20131;-63
2021/06/20 19:21:31;;;;;;;7.05;2.78;;;;;;;;;;10465279;28;20417;-63
2021/06/20 19:26:32;;;;;;;9.65;3.03;;;;;;;;;;10465481;28;20135;-63
2021/06/20 19:31:34;;;;;;;9.60;2.97;;;;;;;;;;10457781;28;20044;-63
2021/06/20 19:36:35;;;;;;;9.70;2.88;;;;;;;;;;10450379;28;20057;-73
2021/06/20 19:41:37;;;;;;;10.02;3.22;;;;;;;;;;10450893;28;20053;-75
2021/06/20 19:46:39;;;;;;;7.75;2.95;;;;;;;;;;10450035;28;20049;-72
2021/06/20 19:51:41;;;;;;;5.32;2.92;;;;;;;;;;10449023;28;20485;-75
2021/06/20 19:56:42;;;;;;;7.05;2.92;;;;;;;;;;10433167;28;20592;-74
2021/06/20 20:01:45;;;;;;;5.10;2.50;;;;;;;;;;10447411;28;20044;-76
2021/06/20 20:06:48;;;;;;;7.10;2.72;;;;;;;;;;10456829;28;20055;-75
2021/06/20 20:11:50;;;;;;;8.35;3.35;;;;;;;;;;10447638;28;20509;-74
2021/06/20 20:16:51;;;;;;;6.07;3.03;;;;;;;;;;10448250;28;20143;-74
2021/06/20 20:21:53;;;;;;;8.55;3.55;;;;;;;;;;10448371;28;20250;-75
2021/06/20 20:26:54;;;;;;;7.30;3.50;;;;;;;;;;10448549;28;20132;-75
2021/06/20 20:31:56;;;;;;;8.88;3.70;;;;;;;;;;10448327;28;20041;-75
2021/06/20 20:37:00;;;;;;;9.00;3.92;;;;;;;;;;10459088;28;20049;-75
2021/06/20 20:42:02;;;;;;;6.50;3.38;;;;;;;;;;10449370;28;20128;-75
2021/06/20 20:47:04;;;;;;;7.28;3.42;;;;;;;;;;10447714;28;20476;-76
2021/06/20 20:52:05;;;;;;;7.18;3.10;;;;;;;;;;10447350;28;20119;-75
2021/06/20 20:57:07;;;;;;;8.82;3.50;;;;;;;;;;10447432;28;20072;-76
2021/06/20 21:02:09;;;;;;;8.10;3.30;;;;;;;;;;10448286;28;20505;-77
2021/06/20 21:07:10;;;;;;;7.35;3.50;;;;;;;;;;10445906;28;20095;-76
2021/06/20 21:12:12;;;;;;;12.15;4.20;;;;;;;;;;10427943;28;20059;-76
2021/06/20 21:17:13;;;;;;;11.07;3.60;;;;;;;;;;10416744;28;20045;-76
2021/06/20 21:22:15;;;;;;;8.85;3.30;;;;;;;;;;10437736;28;20135;-76
2021/06/20 21:27:17;;;;;;;7.53;3.45;;;;;;;;;;10458289;28;20044;-75
2021/06/20 21:32:18;;;;;;;11.98;3.58;;;;;;;;;;10445745;28;20048;-75
2021/06/20 21:37:26;;;;;;;11.68;3.78;;;;;;;;;;10457216;28;20053;-76
2021/06/20 21:42:27;;;;;;;14.93;4.28;;;;;;;;;;10445523;28;20084;-76
2021/06/20 21:47:29;;;;;;;13.60;3.88;;;;;;;;;;10457874;28;20044;-76
2021/06/20 21:52:30;;;;;;;15.55;4.55;;;;;;;;;;10466493;28;20572;-75
2021/06/20 21:57:32;;;;;;;18.13;5.00;;;;;;;;;;10459713;28;20132;-75
2021/06/20 22:02:33;;;;;;;23.80;5.65;;;;;;;;;;10444607;28;20544;-76
2021/06/20 22:07:35;;;;;;;22.90;5.78;;;;;;;;;;10445790;28;20049;-76
2021/06/20 22:12:37;;;;;;;22.33;5.50;;;;;;;;;;10467543;28;20045;-76
2021/06/20 22:17:39;;;;;;;22.50;5.85;;;;;;;;;;10460374;28;20055;-75
2021/06/20 22:22:41;;;;;;;22.00;5.82;;;;;;;;;;10444443;28;21569;-76
2021/06/20 22:27:44;;;;;;;23.05;6.20;;;;;;;;;;10444387;28;20131;-74
2021/06/20 22:32:49;;;;;;;22.67;6.45;;;;;;;;;;10444396;28;20136;-75
2021/06/20 22:37:51;;;;;;;26.48;6.75;;;;;;;;;;10446724;28;20136;-75
2021/06/20 22:42:52;;;;;;;24.45;6.75;;;;;;;;;;10444048;28;20056;-74
2021/06/20 22:47:54;;;;;;;29.83;7.65;;;;;;;;;;10444050;28;20128;-74
2021/06/20 22:52:56;;;;;;;24.17;6.53;;;;;;;;;;10443694;28;20078;-74
2021/06/20 22:57:57;;;;;;;25.27;6.15;;;;;;;;;;10446928;28;20565;-74
2021/06/20 23:02:59;;;;;;;25.95;6.18;;;;;;;;;;10451254;28;20049;-74
2021/06/20 23:08:00;;;;;;;21.02;5.93;;;;;;;;;;10451209;28;20504;-74
2021/06/20 23:13:02;;;;;;;19.45;5.85;;;;;;;;;;10455676;28;20067;-74
2021/06/20 23:18:04;;;;;;;22.73;5.35;;;;;;;;;;10468817;28;20052;-75
2021/06/20 23:23:06;;;;;;;25.83;5.30;;;;;;;;;;10471588;28;20128;-75
2021/06/20 23:28:08;;;;;;;19.20;5.30;;;;;;;;;;10448175;28;20128;-75
2021/06/20 23:33:09;;;;;;;17.88;5.22;;;;;;;;;;10448614;28;20624;-74
2021/06/20 23:38:13;;;;;;;21.40;5.00;;;;;;;;;;10453829;28;20106;-74
2021/06/20 23:43:14;;;;;;;16.70;4.70;;;;;;;;;;10447162;28;20132;-74
2021/06/20 23:48:16;;;;;;;19.95;4.32;;;;;;;;;;10469277;28;20053;-74
2021/06/20 23:53:18;;;;;;;15.43;4.28;;;;;;;;;;10447513;28;20049;-74
2021/06/20 23:58:19;;;;;;;16.42;5.30;;;;;;;;;;10449621;28;20131;-74
